Time;durP1;ratioP1;P1;durP2;ratioP2;P2;SDS_P1;SDS_P2;PMS_P1;PMS_P2;Temp;Humidity;BMP_temperature;BMP_pressure;BME280_temperature;BME280_humidity;BME280_pressure;Samples;Min_cycle;Max_cycle;Signal;HPM_P1;HPM_P2
2023/10/26 00:04:57;;;;;;;0.75;0.20;;;;;;;12.55;93.81;98145.22;10350753;28;20119;-66
2023/10/26 00:09:59;;;;;;;0.47;0.22;;;;;;;12.64;92.98;98158.44;10331685;28;20073;-69
2023/10/26 00:15:00;;;;;;;1.48;0.30;;;;;;;12.62;93.28;98163.16;10354349;28;20064;-69
2023/10/26 00:20:03;;;;;;;0.63;0.38;;;;;;;12.66;92.35;98161.75;10339668;28;20125;-65
2023/10/26 00:25:05;;;;;;;0.73;0.30;;;;;;;12.56;91.62;98162.03;10345028;28;20050;-67
2023/10/26 00:30:11;;;;;;;0.60;0.28;;;;;;;12.45;91.34;98159.88;10351413;28;20061;-66
2023/10/26 00:35:12;;;;;;;0.52;0.40;;;;;;;12.42;90.96;98144.25;10351197;28;20041;-65
2023/10/26 00:40:14;;;;;;;1.73;0.45;;;;;;;12.51;90.32;98170.63;10330485;28;20360;-66
2023/10/26 00:45:18;;;;;;;0.75;0.30;;;;;;;12.49;90.71;98167.31;10347953;28;20124;-66
2023/10/26 00:50:19;;;;;;;0.68;0.30;;;;;;;12.55;89.72;98179.09;10350192;28;20550;-67
2023/10/26 00:55:22;;;;;;;0.88;0.50;;;;;;;12.46;88.34;98166.84;10347646;28;20077;-69
2023/10/26 01:00:26;;;;;;;1.45;0.38;;;;;;;12.47;88.95;98181.84;10350171;28;20133;-68
2023/10/26 01:05:27;;;;;;;1.13;0.70;;;;;;;12.45;88.71;98179.38;10350690;28;20128;-65
2023/10/26 01:10:29;;;;;;;0.80;0.60;;;;;;;12.47;89.03;98184.53;10348894;28;20418;-65
2023/10/26 01:15:31;;;;;;;0.95;0.55;;;;;;;12.42;88.42;98176.25;10332570;28;20057;-69
2023/10/26 01:20:32;;;;;;;1.10;0.70;;;;;;;12.38;87.69;98189.13;10347132;28;20135;-67
2023/10/26 01:25:34;;;;;;;1.50;0.90;;;;;;;12.41;88.04;98195.94;10338421;28;20133;-67
2023/10/26 01:30:35;;;;;;;0.77;0.60;;;;;;;12.25;87.74;98181.78;10342866;28;20049;-66
2023/10/26 01:35:40;;;;;;;1.10;0.82;;;;;;;12.40;87.77;98199.63;10336135;28;20577;-69
2023/10/26 01:40:41;;;;;;;1.70;0.98;;;;;;;12.28;88.10;98181.41;10337934;28;20048;-67
2023/10/26 01:45:43;;;;;;;2.22;1.00;;;;;;;12.46;88.48;98194.38;10347570;28;20615;-67
2023/10/26 01:50:44;;;;;;;1.45;1.20;;;;;;;12.46;89.58;98182.84;10346178;28;20468;-67
2023/10/26 01:55:46;;;;;;;1.60;1.20;;;;;;;12.44;88.18;98184.91;10331669;28;20064;-68
2023/10/26 02:00:47;;;;;;;1.33;1.02;;;;;;;12.52;89.00;98188.28;10331537;28;20500;-69
2023/10/26 02:05:50;;;;;;;2.45;1.40;;;;;;;12.53;88.10;98205.13;10345298;28;20053;-66
2023/10/26 02:10:51;;;;;;;2.15;1.50;;;;;;;12.47;87.89;98208.53;10348029;28;20242;-67
2023/10/26 02:15:53;;;;;;;1.67;1.38;;;;;;;12.50;87.66;98208.16;10336138;28;20054;-68
2023/10/26 02:20:54;;;;;;;2.63;1.52;;;;;;;12.36;87.21;98210.66;10347906;28;20157;-67
2023/10/26 02:25:56;;;;;;;1.10;0.90;;;;;;;12.37;87.89;98211.50;10335083;28;20038;-67
2023/10/26 02:30:57;;;;;;;1.52;1.00;;;;;;;12.36;87.83;98210.66;10353485;28;20054;-68
2023/10/26 02:35:59;;;;;;;1.63;1.15;;;;;;;12.32;88.09;98209.34;10366796;28;20776;-68
2023/10/26 02:41:04;;;;;;;1.10;1.00;;;;;;;12.16;87.77;98186.38;10353461;28;20314;-68
2023/10/26 02:46:06;;;;;;;3.00;1.20;;;;;;;12.33;88.54;98220.88;10343761;28;20049;-66
2023/10/26 02:51:07;;;;;;;1.83;1.63;;;;;;;12.27;88.27;98211.75;10347237;28;20068;-67
2023/10/26 02:56:09;;;;;;;1.83;1.58;;;;;;;12.27;88.53;98211.75;10348561;28;20049;-68
2023/10/26 03:01:10;;;;;;;3.80;1.70;;;;;;;12.30;88.01;98213.25;10344023;28;20061;-68
2023/10/26 03:06:11;;;;;;;3.72;1.80;;;;;;;12.23;88.63;98212.31;10332698;28;20112;-69
2023/10/26 03:11:13;;;;;;;3.50;2.17;;;;;;;12.22;88.34;98224.84;10323982;28;21403;-67
2023/10/26 03:16:15;;;;;;;3.33;2.17;;;;;;;12.24;88.51;98217.47;10346175;28;20095;-68
2023/10/26 03:21:18;;;;;;;2.60;2.40;;;;;;;12.20;88.15;98218.84;10353080;28;20041;-68
2023/10/26 03:26:20;;;;;;;2.70;2.50;;;;;;;12.26;86.83;98226.09;10353240;28;20408;-65
2023/10/26 03:31:22;;;;;;;3.40;3.10;;;;;;;12.15;87.58;98211.41;10353934;28;20128;-67
2023/10/26 03:36:23;;;;;;;3.35;2.80;;;;;;;12.19;88.14;98222.53;10358091;28;20385;-68
2023/10/26 03:41:25;;;;;;;3.25;2.95;;;;;;;12.29;87.95;98231.06;10356663;28;20584;-69
2023/10/26 03:46:26;;;;;;;3.15;2.85;;;;;;;12.34;87.68;98238.53;10354192;28;20191;-68
2023/10/26 03:51:28;;;;;;;3.05;2.85;;;;;;;12.32;87.44;98229.88;10354655;28;20053;-70
2023/10/26 03:56:29;;;;;;;4.10;3.58;;;;;;;12.32;87.33;98229.88;10339008;28;20053;-69
2023/10/26 04:01:31;;;;;;;3.60;3.30;;;;;;;12.30;86.66;98224.75;10351822;28;20053;-69
2023/10/26 04:06:32;;;;;;;3.72;3.33;;;;;;;12.30;86.54;98227.41;10349418;28;20243;-69
2023/10/26 04:11:33;;;;;;;3.55;2.97;;;;;;;12.11;85.63;98201.28;10353725;28;20355;-68
2023/10/26 04:16:35;;;;;;;3.75;3.45;;;;;;;12.25;85.33;98228.97;10338517;28;20108;-69
2023/10/26 04:21:36;;;;;;;3.67;3.35;;;;;;;12.25;86.45;98223.63;10351329;28;20041;-69
2023/10/26 04:26:38;;;;;;;3.75;3.40;;;;;;;12.11;85.96;98212.75;10351137;28;20120;-68
2023/10/26 04:31:39;;;;;;;4.65;4.25;;;;;;;12.16;85.79;98241.56;10332383;28;20053;-68
2023/10/26 04:36:40;;;;;;;4.90;4.35;;;;;;;12.13;85.85;98242.75;10341882;28;20053;-67
2023/10/26 04:41:43;;;;;;;5.00;4.50;;;;;;;12.10;86.10;98242.28;10351185;28;20049;-67
2023/10/26 04:46:44;;;;;;;4.43;4.10;;;;;;;12.10;85.81;98264.47;10328569;28;20053;-69
2023/10/26 04:51:46;;;;;;;3.97;3.58;;;;;;;12.00;85.47;98254.03;10335394;28;20116;-69
2023/10/26 04:56:47;;;;;;;3.60;3.30;;;;;;;11.93;85.39;98226.44;10333542;28;20111;-71
2023/10/26 05:01:49;;;;;;;3.90;3.55;;;;;;;11.92;83.67;98227.44;10351514;28;20539;-69
2023/10/26 05:06:51;;;;;;;3.00;2.80;;;;;;;11.94;85.04;98233.44;10347601;28;20142;-71
2023/10/26 05:11:52;;;;;;;2.55;2.35;;;;;;;11.81;84.77;98212.72;10335322;28;20306;-68
2023/10/26 05:16:54;;;;;;;2.83;2.50;;;;;;;12.00;84.16;98226.56;10344892;28;20057;-68
2023/10/26 05:21:55;;;;;;;2.97;2.67;;;;;;;11.92;84.24;98219.44;10329550;28;20065;-69
2023/10/26 05:26:57;;;;;;;2.80;2.60;;;;;;;12.07;85.06;98231.97;10341269;28;20112;-69
2023/10/26 05:31:58;;;;;;;2.55;2.33;;;;;;;11.93;84.67;98221.13;10330411;28;20060;-70
2023/10/26 05:36:59;;;;;;;2.45;2.25;;;;;;;11.96;85.36;98223.41;10345167;28;20504;-71
2023/10/26 05:42:04;;;;;;;2.50;2.30;;;;;;;11.93;85.86;98205.13;10331141;28;20416;-73
2023/10/26 05:47:05;;;;;;;;;;;;;;;11.99;84.91;98235.56;10328578;28;20143;-77
2023/10/26 05:52:07;;;;;;;2.50;2.30;;;;;;;11.95;84.76;98218.28;10325538;28;20299;-71
2023/10/26 05:57:08;;;;;;;2.83;2.30;;;;;;;11.90;84.07;98224.13;10345762;28;20492;-71
2023/10/26 06:02:10;;;;;;;2.38;2.17;;;;;;;11.96;83.99;98236.75;10333373;28;20060;-70
2023/10/26 06:07:11;;;;;;;7.35;2.40;;;;;;;11.95;83.87;98226.25;10325211;28;20053;-70
2023/10/26 06:12:13;;;;;;;2.30;2.10;;;;;;;11.87;84.20;98229.81;10340906;28;20056;-71
2023/10/26 06:17:15;;;;;;;2.22;1.90;;;;;;;11.71;85.15;98221.97;10325406;28;20052;-73
2023/10/26 06:22:17;;;;;;;2.25;1.90;;;;;;;11.80;86.02;98231.53;10321290;28;20519;-69
2023/10/26 06:27:19;;;;;;;2.10;1.90;;;;;;;11.87;85.62;98237.81;10338915;28;20646;-69
2023/10/26 06:32:21;;;;;;;1.42;1.33;;;;;;;11.83;86.20;98225.88;10337039;28;20427;-71
2023/10/26 06:37:23;;;;;;;1.73;1.42;;;;;;;12.00;86.36;98243.38;10322943;28;20770;-71
2023/10/26 06:42:24;;;;;;;3.72;2.03;;;;;;;11.96;86.06;98247.41;10322452;28;20061;-70
2023/10/26 06:47:26;;;;;;;2.08;1.88;;;;;;;11.85;85.65;98234.50;10324575;28;20061;-72
2023/10/26 06:52:27;;;;;;;2.42;1.95;;;;;;;12.05;85.04;98258.84;10324772;28;20068;-69
2023/10/26 06:57:32;;;;;;;2.45;1.98;;;;;;;12.05;85.17;98263.34;10329033;28;20055;-71
2023/10/26 07:02:34;;;;;;;2.75;1.40;;;;;;;11.97;85.05;98238.41;10326321;28;20054;-70
2023/10/26 07:07:36;;;;;;;2.40;2.20;;;;;;;12.10;84.74;98258.28;10324800;28;20053;-69
2023/10/26 07:12:37;;;;;;;5.28;2.30;;;;;;;12.05;84.96;98250.84;10346771;28;20057;-69
2023/10/26 07:17:39;;;;;;;2.47;2.03;;;;;;;12.03;85.68;98223.53;10343148;28;20479;-71
2023/10/26 07:22:45;;;;;;;3.60;2.50;;;;;;;12.22;85.02;98246.19;10342869;28;20057;-71
2023/10/26 07:27:46;;;;;;;3.80;2.40;;;;;;;12.32;83.77;98256.56;10326904;28;20049;-70
2023/10/26 07:32:48;;;;;;;2.83;1.70;;;;;;;12.36;83.62;98258.69;10327403;28;20056;-71
2023/10/26 07:37:51;;;;;;;2.08;1.88;;;;;;;12.30;83.35;98243.41;10324245;28;20050;-71
2023/10/26 07:43:13;;;;;;;2.70;2.08;;;;;;;12.39;82.79;98238.81;10338831;28;20061;-69
2023/10/26 07:48:15;;;;;;;2.35;2.00;;;;;;;12.47;83.19;98243.22;10337877;28;20104;-72
2023/10/26 07:53:17;;;;;;;2.95;1.92;;;;;;;12.58;83.04;98237.44;10341942;28;20534;-70
2023/10/26 07:58:18;;;;;;;2.08;1.52;;;;;;;12.55;81.14;98224.47;10325743;28;20230;-72
2023/10/26 08:03:24;;;;;;;4.55;1.85;;;;;;;12.49;81.45;98214.50;10346310;28;20053;-71
2023/10/26 08:08:26;;;;;;;2.40;1.50;;;;;;;12.57;82.06;98214.41;10348651;28;20111;-71
2023/10/26 08:13:27;;;;;;;2.85;2.22;;;;;;;12.79;79.91;98234.00;10350249;28;20063;-72
2023/10/26 08:18:29;;;;;;;2.50;1.73;;;;;;;12.97;80.00;98227.41;10381518;28;20040;-71
2023/10/26 08:23:33;;;;;;;2.55;2.00;;;;;;;13.15;79.79;98235.00;10362459;28;20523;-70
2023/10/26 08:28:35;;;;;;;1.88;1.60;;;;;;;12.97;78.13;98236.25;10349230;28;20053;-70
2023/10/26 08:33:36;;;;;;;2.28;1.85;;;;;;;13.02;77.86;98241.03;10350951;28;20490;-69
2023/10/26 08:38:38;;;;;;;2.00;1.77;;;;;;;13.00;77.84;98233.22;10347855;28;21168;-70
2023/10/26 08:43:42;;;;;;;1.75;1.65;;;;;;;13.18;77.94;98231.94;10334033;28;20060;-71
2023/10/26 08:48:46;;;;;;;2.03;1.85;;;;;;;13.18;76.67;98251.47;10342711;28;20064;-69
2023/10/26 08:53:48;;;;;;;2.67;1.90;;;;;;;13.02;76.56;98257.88;10345822;28;20457;-70
2023/10/26 08:58:54;;;;;;;2.53;1.83;;;;;;;13.07;76.76;98271.47;10345406;28;20593;-71
2023/10/26 09:03:56;;;;;;;1.73;1.63;;;;;;;13.08;76.50;98267.81;10326931;28;20053;-72
2023/10/26 09:09:04;;;;;;;1.65;1.45;;;;;;;13.05;76.12;98275.38;10316841;28;20218;-70
2023/10/26 09:14:13;;;;;;;2.53;2.03;;;;;;;12.98;75.46;98277.94;10344828;28;20094;-72
2023/10/26 09:19:17;;;;;;;2.05;1.50;;;;;;;13.06;75.58;98301.91;10327347;28;20512;-70
2023/10/26 09:24:29;;;;;;;2.03;1.63;;;;;;;12.96;75.80;98284.50;10346228;28;20064;-71
2023/10/26 09:29:38;;;;;;;2.42;2.20;;;;;;;12.87;75.72;98275.78;10346153;28;20588;-71
2023/10/26 09:34:41;;;;;;;1.58;1.48;;;;;;;13.07;74.83;98303.53;10317620;28;20061;-71
2023/10/26 09:39:43;;;;;;;2.37;1.53;;;;;;;13.17;75.59;98299.75;10342961;28;20153;-70
2023/10/26 09:44:45;;;;;;;2.30;1.95;;;;;;;13.72;74.25;98308.16;10329815;28;20309;-71
2023/10/26 09:49:47;;;;;;;2.13;1.67;;;;;;;14.32;72.13;98287.22;10325210;28;20383;-69
2023/10/26 09:54:49;;;;;;;3.20;2.22;;;;;;;14.47;71.69;98293.31;10343869;28;20126;-70
2023/10/26 09:59:52;;;;;;;1.40;1.30;;;;;;;14.45;70.71;98295.34;10344451;28;20076;-69
2023/10/26 10:04:54;;;;;;;1.70;1.40;;;;;;;14.28;68.45;98304.72;10333638;28;20187;-71
2023/10/26 10:10:10;;;;;;;2.67;1.52;;;;;;;14.12;69.02;98300.47;10327543;28;20060;-71
2023/10/26 10:15:13;;;;;;;2.72;1.80;;;;;;;14.02;69.95;98289.28;10345464;28;20080;-72
2023/10/26 10:20:36;;;;;;;1.33;1.15;;;;;;;13.95;69.12;98310.63;10344461;28;20061;-70
2023/10/26 10:25:50;;;;;;;1.10;1.00;;;;;;;13.78;69.09;98305.56;10332705;28;20041;-72
2023/10/26 10:30:57;;;;;;;2.30;0.97;;;;;;;13.72;69.84;98290.28;10342601;28;20455;-73
2023/10/26 10:36:02;;;;;;;1.00;0.90;;;;;;;13.69;72.14;98274.63;10344157;28;20109;-71
2023/10/26 10:41:04;;;;;;;1.80;1.50;;;;;;;13.67;69.95;98276.66;10331534;28;20065;-70
2023/10/26 10:46:13;;;;;;;2.17;1.98;;;;;;;13.58;69.74;98264.44;10342336;28;20476;-70
2023/10/26 10:51:15;;;;;;;1.65;1.38;;;;;;;13.47;70.39;98264.97;10342396;28;20602;-70
2023/10/26 10:56:17;;;;;;;3.03;1.48;;;;;;;13.52;71.38;98257.19;10342870;28;20145;-69
2023/10/26 11:01:20;;;;;;;1.88;0.93;;;;;;;13.53;71.57;98248.16;10329758;28;20061;-71
2023/10/26 11:06:21;;;;;;;1.83;0.90;;;;;;;13.57;71.95;98230.69;10331716;28;20701;-69
2023/10/26 11:11:27;;;;;;;2.55;0.90;;;;;;;13.66;71.05;98245.59;10343764;28;20054;-72
2023/10/26 11:16:28;;;;;;;1.88;1.13;;;;;;;13.68;71.88;98240.88;10343294;28;20064;-69
2023/10/26 11:21:30;;;;;;;2.92;1.05;;;;;;;13.54;71.51;98225.72;10345063;28;20222;-70
2023/10/26 11:26:32;;;;;;;1.00;0.70;;;;;;;13.43;71.75;98233.25;10328827;28;20099;-70
2023/10/26 11:31:35;;;;;;;1.10;1.00;;;;;;;13.39;72.37;98234.66;10343234;28;20144;-70
2023/10/26 11:36:37;;;;;;;1.23;1.00;;;;;;;13.33;73.52;98210.50;10341778;28;20204;-70
2023/10/26 11:41:38;;;;;;;2.55;0.70;;;;;;;13.34;72.84;98220.22;10349483;28;20061;-70
2023/10/26 11:46:40;;;;;;;1.92;0.77;;;;;;;13.40;73.95;98236.31;10350242;28;20065;-71
2023/10/26 11:51:41;;;;;;;2.70;0.98;;;;;;;13.40;74.12;98222.94;10330481;28;20378;-70
2023/10/26 11:56:54;;;;;;;2.85;0.85;;;;;;;13.37;73.65;98222.50;10346901;28;20127;-70
2023/10/26 12:01:57;;;;;;;3.00;0.50;;;;;;;13.32;74.28;98204.34;10333812;28;20648;-71
2023/10/26 12:06:59;;;;;;;1.55;0.75;;;;;;;13.40;74.86;98203.41;10345500;28;20089;-72
2023/10/26 12:12:00;;;;;;;5.65;3.10;;;;;;;13.36;76.07;98204.81;10334644;28;20049;-70
2023/10/26 12:17:02;;;;;;;3.92;1.38;;;;;;;13.37;77.81;98211.81;10330770;28;20068;-70
2023/10/26 12:22:03;;;;;;;2.25;1.50;;;;;;;13.16;79.35;98184.03;10332277;28;20054;-71
2023/10/26 12:27:05;;;;;;;1.90;1.30;;;;;;;13.31;80.17;98201.88;10347576;28;20055;-69
2023/10/26 12:32:07;;;;;;;3.00;2.13;;;;;;;13.34;80.42;98178.28;10332864;28;20050;-70
2023/10/26 12:37:09;;;;;;;3.58;1.55;;;;;;;13.47;80.95;98185.59;10330093;28;20073;-71
2023/10/26 12:42:10;;;;;;;2.88;1.90;;;;;;;13.63;80.69;98181.84;10341457;28;20210;-72
2023/10/26 12:47:11;;;;;;;4.15;1.67;;;;;;;13.72;79.69;98161.09;10333679;28;20095;-72
2023/10/26 12:52:13;;;;;;;2.40;1.38;;;;;;;13.86;79.67;98162.84;10330747;28;20061;-71
2023/10/26 12:57:14;;;;;;;5.05;1.58;;;;;;;13.93;79.04;98139.66;10348420;28;20131;-71
2023/10/26 13:02:16;;;;;;;2.55;1.38;;;;;;;14.17;78.63;98153.56;10331657;28;20054;-71
2023/10/26 13:07:17;;;;;;;2.22;1.52;;;;;;;14.18;78.01;98155.22;10346645;28;20974;-73
2023/10/26 13:12:19;;;;;;;1.48;1.02;;;;;;;14.13;77.56;98142.44;10331739;28;20137;-72
2023/10/26 13:17:20;;;;;;;1.73;1.45;;;;;;;14.08;77.88;98138.69;10331123;28;20061;-70
2023/10/26 13:22:22;;;;;;;1.52;1.42;;;;;;;13.92;78.04;98138.00;10330929;28;20057;-73
2023/10/26 13:27:25;;;;;;;1.67;1.27;;;;;;;13.87;78.43;98132.44;10331363;28;20050;-70
2023/10/26 13:32:27;;;;;;;1.75;1.27;;;;;;;13.76;79.20;98115.06;10333904;28;20190;-70
2023/10/26 13:37:28;;;;;;;1.98;1.00;;;;;;;13.87;79.46;98126.22;10363975;28;20049;-72
2023/10/26 13:42:30;;;;;;;1.42;0.85;;;;;;;13.79;78.59;98122.69;10372705;28;20080;-73
2023/10/26 13:47:34;;;;;;;2.22;1.23;;;;;;;13.83;79.35;98116.97;10338706;28;20050;-71
2023/10/26 13:52:35;;;;;;;2.10;1.00;;;;;;;13.96;79.17;98112.53;10348167;28;20060;-73
2023/10/26 13:57:37;;;;;;;2.30;1.27;;;;;;;14.07;80.02;98087.06;10353192;28;20112;-70
2023/10/26 14:02:39;;;;;;;2.38;1.40;;;;;;;14.07;77.61;98100.44;10328646;28;20403;-68
2023/10/26 14:07:41;;;;;;;1.38;0.88;;;;;;;13.98;76.71;98090.91;10343586;28;20057;-70
2023/10/26 14:12:42;;;;;;;1.40;0.55;;;;;;;13.99;77.08;98087.22;10331021;28;20582;-72
2023/10/26 14:17:44;;;;;;;2.38;1.20;;;;;;;13.91;77.92;98074.00;10341965;28;20063;-68
2023/10/26 14:22:46;;;;;;;2.42;1.40;;;;;;;13.89;78.17;98078.75;10342541;28;21077;-73
2023/10/26 14:27:50;;;;;;;1.30;1.20;;;;;;;13.94;79.67;98084.31;10327715;28;20053;-70
2023/10/26 14:32:51;;;;;;;2.10;1.43;;;;;;;13.97;79.07;98075.88;10344652;28;20050;-74
2023/10/26 14:37:53;;;;;;;3.78;1.48;;;;;;;13.95;79.80;98080.63;10340901;28;20400;-71
2023/10/26 14:42:54;;;;;;;2.22;1.63;;;;;;;13.93;80.04;98088.00;10342012;28;20578;-71
2023/10/26 14:47:57;;;;;;;2.20;1.73;;;;;;;13.86;80.89;98066.59;10341702;28;20491;-71
2023/10/26 14:52:58;;;;;;;4.07;2.30;;;;;;;13.91;81.71;98068.66;10341195;28;20508;-71
2023/10/26 14:58:00;;;;;;;2.20;1.70;;;;;;;13.84;81.58;98054.44;10344774;28;20053;-72
2023/10/26 15:03:01;;;;;;;3.90;2.17;;;;;;;13.93;81.60;98067.44;10344609;28;20372;-69
2023/10/26 15:08:03;;;;;;;2.63;1.90;;;;;;;13.90;82.35;98064.34;10340950;28;20062;-70
2023/10/26 15:13:04;;;;;;;2.20;1.75;;;;;;;13.92;82.56;98068.47;10352405;28;20969;-73
2023/10/26 15:18:06;;;;;;;4.35;2.53;;;;;;;13.93;83.80;98077.31;10352288;28;20159;-71
2023/10/26 15:23:07;;;;;;;4.15;2.35;;;;;;;13.77;84.57;98057.09;10355339;28;20053;-71
2023/10/26 15:28:09;;;;;;;6.20;2.40;;;;;;;13.85;84.98;98061.44;10350521;28;20142;-69
2023/10/26 15:33:10;;;;;;;7.13;2.50;;;;;;;13.82;86.22;98053.81;10350267;28;20147;-70
2023/10/26 15:38:12;;;;;;;3.38;2.30;;;;;;;13.73;87.51;98061.97;10349096;28;20091;-67
2023/10/26 15:43:13;;;;;;;3.05;2.33;;;;;;;13.67;88.60;98052.06;10343116;28;21677;-68
2023/10/26 15:48:14;;;;;;;3.75;2.88;;;;;;;13.60;90.04;98056.56;10348810;28;20160;-70
2023/10/26 15:53:16;;;;;;;5.90;3.60;;;;;;;13.63;90.52;98050.00;10350791;28;20717;-68
2023/10/26 15:58:17;;;;;;;4.57;3.20;;;;;;;13.62;91.21;98038.50;10348518;28;20590;-69
2023/10/26 16:03:19;;;;;;;4.05;3.33;;;;;;;13.64;91.39;98051.66;10347487;28;20053;-71
2023/10/26 16:08:20;;;;;;;5.32;3.53;;;;;;;13.60;92.06;98040.53;10334572;28;20240;-71
2023/10/26 16:13:21;;;;;;;3.50;2.92;;;;;;;13.57;92.09;98059.63;10333851;28;20061;-70
2023/10/26 16:18:23;;;;;;;3.25;2.90;;;;;;;13.56;92.30;98053.47;10345900;28;20623;-71
2023/10/26 16:23:26;;;;;;;4.85;3.60;;;;;;;13.53;93.21;98031.66;10337071;28;20041;-70
2023/10/26 16:28:29;;;;;;;5.25;3.40;;;;;;;13.46;93.69;98017.44;10345075;28;20053;-70
2023/10/26 16:33:30;;;;;;;4.97;3.13;;;;;;;13.40;93.74;98008.34;10352372;28;20116;-69
2023/10/26 16:38:31;;;;;;;3.97;3.60;;;;;;;13.42;94.34;98023.16;10350945;28;20540;-70
2023/10/26 16:43:33;;;;;;;6.03;4.57;;;;;;;13.51;94.47;98039.03;10358381;28;20046;-70
2023/10/26 16:48:35;;;;;;;3.75;3.45;;;;;;;13.46;94.46;98039.63;10352854;28;20053;-68
2023/10/26 16:53:38;;;;;;;4.65;4.22;;;;;;;13.49;95.20;98049.91;10340246;28;20064;-70
2023/10/26 16:58:40;;;;;;;5.47;4.97;;;;;;;13.50;95.01;98040.88;10346397;28;20135;-70
2023/10/26 17:03:44;;;;;;;6.78;4.88;;;;;;;13.48;95.21;98042.09;10351189;28;20307;-70
2023/10/26 17:08:47;;;;;;;;;;;;;;;13.38;95.64;98043.28;10346838;28;20057;-69
2023/10/26 17:13:49;;;;;;;5.50;5.00;;;;;;;13.52;95.76;98048.72;10367609;28;19965;-66
2023/10/26 17:18:51;;;;;;;5.65;5.07;;;;;;;13.50;95.97;98045.41;10351305;28;20140;-64
2023/10/26 17:24:02;;;;;;;5.95;5.30;;;;;;;13.62;96.15;98062.56;10332038;28;20049;-66
2023/10/26 17:29:05;;;;;;;4.70;3.75;;;;;;;13.64;96.10;98063.16;10325539;28;20903;-68
2023/10/26 17:34:09;;;;;;;6.85;5.85;;;;;;;13.62;95.78;98057.22;10315285;28;20084;-68
2023/10/26 17:39:13;;;;;;;6.45;5.25;;;;;;;13.64;96.02;98055.16;10344966;28;20045;-69
2023/10/26 17:44:15;;;;;;;;;;;;;;;13.64;96.48;98040.97;10337707;28;20045;-71
2023/10/26 17:49:27;;;;;;;8.60;6.03;;;;;;;13.64;96.14;98046.31;10358232;28;19940;-68
2023/10/26 17:54:28;;;;;;;6.22;5.60;;;;;;;13.60;96.09;98040.53;10343168;28;20057;-70
2023/10/26 17:59:30;;;;;;;7.28;6.57;;;;;;;13.63;96.22;98053.53;10340440;28;20171;-69
2023/10/26 18:04:32;;;;;;;14.55;9.95;;;;;;;13.57;96.12;98057.78;10342912;28;20053;-73
2023/10/26 18:09:36;;;;;;;7.18;6.57;;;;;;;13.54;97.16;98068.03;10335277;28;20136;-69
2023/10/26 18:14:41;;;;;;;7.60;5.57;;;;;;;13.58;97.08;98058.63;10343747;28;20070;-70
2023/10/26 18:19:42;;;;;;;5.95;5.35;;;;;;;13.59;97.07;98060.28;10345452;28;20559;-69
2023/10/26 18:24:44;;;;;;;5.75;5.13;;;;;;;13.57;97.17;98051.59;10342743;28;20053;-70
2023/10/26 18:29:46;;;;;;;6.82;6.18;;;;;;;13.50;96.79;98051.56;10346840;28;20053;-68
2023/10/26 18:34:48;;;;;;;6.47;5.88;;;;;;;13.41;96.98;98029.53;10341860;28;20508;-69
2023/10/26 18:39:53;;;;;;;6.57;5.97;;;;;;;13.51;97.48;98044.38;10331224;28;20059;-69
2023/10/26 18:44:55;;;;;;;6.45;5.90;;;;;;;13.49;97.63;98033.06;10330974;28;20048;-70
2023/10/26 18:49:57;;;;;;;7.07;6.45;;;;;;;13.46;97.24;98025.44;10352859;28;20052;-76
2023/10/26 18:54:59;;;;;;;8.75;6.97;;;;;;;13.35;97.30;98024.16;10344604;28;20865;-72
2023/10/26 19:00:01;;;;;;;8.00;7.25;;;;;;;13.42;98.63;98038.34;10361017;28;20120;-75
2023/10/26 19:05:04;;;;;;;8.02;7.32;;;;;;;13.41;98.71;98048.22;10367782;28;20049;-70
2023/10/26 19:10:06;;;;;;;8.75;7.80;;;;;;;13.41;98.93;98042.88;10347867;28;20049;-69
2023/10/26 19:15:08;;;;;;;9.30;7.72;;;;;;;13.46;99.08;98044.16;10354017;28;20129;-73
2023/10/26 19:20:11;;;;;;;9.05;8.25;;;;;;;13.46;99.12;98033.47;10323848;28;20084;-71
2023/10/26 19:25:15;;;;;;;12.60;11.02;;;;;;;13.49;99.05;98044.56;10335216;28;20081;-71
2023/10/26 19:30:25;;;;;;;11.27;10.07;;;;;;;13.43;99.18;98056.88;10349820;28;20176;-70
2023/10/26 19:35:28;;;;;;;12.40;10.63;;;;;;;13.47;99.48;98061.84;10324184;28;20053;-70
2023/10/26 19:40:31;;;;;;;11.98;10.77;;;;;;;13.44;99.62;98053.19;10346401;28;20056;-69
2023/10/26 19:45:32;;;;;;;13.43;12.07;;;;;;;13.35;99.99;98030.31;10346878;28;20046;-73
2023/10/26 19:50:34;;;;;;;12.23;11.02;;;;;;;13.44;100.00;98039.81;10341098;28;20606;-72
2023/10/26 19:55:35;;;;;;;12.77;11.52;;;;;;;13.34;100.00;98014.47;10345714;28;20871;-68
2023/10/26 20:00:41;;;;;;;11.95;10.75;;;;;;;13.53;100.00;98037.00;10351430;28;20057;-69
2023/10/26 20:05:44;;;;;;;13.07;11.88;;;;;;;13.53;100.00;98045.84;10357149;28;20044;-73
2023/10/26 20:10:46;;;;;;;13.82;12.30;;;;;;;13.53;100.00;98050.38;10369525;28;20042;-71
2023/10/26 20:15:47;;;;;;;13.60;12.20;;;;;;;13.53;100.00;98053.03;10336000;28;20057;-72
2023/10/26 20:20:49;;;;;;;14.02;12.23;;;;;;;13.53;100.00;98053.84;10356609;28;20057;-68
2023/10/26 20:25:56;;;;;;;13.85;12.55;;;;;;;13.52;100.00;98048.72;10353552;28;20464;-68
2023/10/26 20:30:57;;;;;;;12.27;11.07;;;;;;;13.52;100.00;98032.69;10355464;28;20057;-71
2023/10/26 20:36:00;;;;;;;11.82;10.73;;;;;;;13.54;100.00;98031.47;10351019;28;20108;-71
2023/10/26 20:41:01;;;;;;;10.60;9.60;;;;;;;13.61;100.00;98034.16;10339495;28;20495;-71
2023/10/26 20:46:03;;;;;;;12.45;11.15;;;;;;;13.67;100.00;98037.91;10352985;28;20045;-70
2023/10/26 20:51:07;;;;;;;12.07;10.93;;;;;;;13.51;100.00;98015.81;10334966;28;20058;-70
2023/10/26 20:56:08;;;;;;;11.98;10.70;;;;;;;13.59;100.00;98028.19;10354909;28;20668;-69
2023/10/26 21:01:10;;;;;;;12.18;10.98;;;;;;;13.59;100.00;98033.53;10352009;28;20065;-72
2023/10/26 21:06:12;;;;;;;12.45;11.23;;;;;;;13.58;100.00;98021.19;10361044;28;20057;-68
2023/10/26 21:11:15;;;;;;;12.00;10.77;;;;;;;13.46;100.00;98007.56;10335677;28;20073;-67
2023/10/26 21:16:16;;;;;;;11.65;10.45;;;;;;;13.50;100.00;98021.38;10355164;28;20065;-68
2023/10/26 21:21:18;;;;;;;13.15;11.45;;;;;;;13.41;100.00;98018.84;10346893;28;20054;-69
2023/10/26 21:26:19;;;;;;;12.15;10.95;;;;;;;13.42;100.00;98011.63;10332462;28;20050;-69
2023/10/26 21:31:23;;;;;;;13.27;10.40;;;;;;;13.46;100.00;98012.09;10349959;28;20888;-68
2023/10/26 21:36:25;;;;;;;12.98;11.68;;;;;;;13.46;100.00;97998.72;10351926;28;20065;-71
2023/10/26 21:41:27;;;;;;;12.85;11.52;;;;;;;13.35;100.00;97990.22;10335698;28;20108;-70
2023/10/26 21:46:29;;;;;;;13.32;10.52;;;;;;;13.34;100.00;97972.53;10328175;28;20059;-69
2023/10/26 21:51:33;;;;;;;9.90;8.85;;;;;;;13.29;100.00;97969.63;10329665;28;20053;-69
2023/10/26 21:56:35;;;;;;;11.00;9.18;;;;;;;13.29;100.00;97966.94;10334609;28;20124;-70
2023/10/26 22:01:40;;;;;;;8.73;7.82;;;;;;;13.30;100.00;97971.28;10323409;28;20699;-68
2023/10/26 22:06:42;;;;;;;11.73;7.82;;;;;;;13.29;100.00;97956.25;10319421;28;20045;-67
2023/10/26 22:11:45;;;;;;;6.90;6.20;;;;;;;13.36;100.00;97964.31;10324216;28;21182;-70
2023/10/26 22:16:47;;;;;;;8.45;7.55;;;;;;;13.36;100.00;97959.81;10344111;28;20052;-70
2023/10/26 22:21:49;;;;;;;9.65;8.68;;;;;;;13.40;100.00;97954.91;10346416;28;20128;-70
2023/10/26 22:26:51;;;;;;;11.40;8.38;;;;;;;13.37;100.00;97933.91;10346715;28;20285;-70
2023/10/26 22:31:53;;;;;;;11.82;8.80;;;;;;;13.35;100.00;97942.13;10344991;28;20057;-70
2023/10/26 22:36:54;;;;;;;11.88;9.15;;;;;;;13.19;100.00;97934.41;10345152;28;20079;-70
2023/10/26 22:41:56;;;;;;;11.18;8.20;;;;;;;13.19;100.00;97942.44;10351884;28;20175;-68
2023/10/26 22:46:58;;;;;;;12.73;8.60;;;;;;;13.19;100.00;97937.09;10348810;28;20045;-70
2023/10/26 22:51:59;;;;;;;9.80;7.97;;;;;;;13.10;100.00;97920.38;10351355;28;20065;-69
2023/10/26 22:57:01;;;;;;;10.05;7.78;;;;;;;13.22;100.00;97926.00;10346380;28;20074;-71
2023/10/26 23:02:02;;;;;;;12.80;8.38;;;;;;;13.24;100.00;97921.28;10333343;28;20056;-71
2023/10/26 23:07:03;;;;;;;7.85;6.38;;;;;;;13.21;100.00;97916.34;10349468;28;20508;-70
2023/10/26 23:12:05;;;;;;;9.30;6.75;;;;;;;13.21;99.36;97921.66;10331029;28;20447;-69
2023/10/26 23:17:06;;;;;;;9.63;6.20;;;;;;;13.21;99.24;97913.66;10343732;28;20053;-68
2023/10/26 23:22:10;;;;;;;9.93;6.43;;;;;;;13.18;99.22;97924.75;10346021;28;20057;-70